17CL weather

Las Trancas Airport
Davenport, California, United States

Public forecast

Using degrees Fahrenheit for public forecast. Weather courtesy of forecast.io.

METAR (pilot weather report)

Closest report is Moffett Federal Airfield, 22.4 nm (41.6 km) NNE. Retrieved 2019/06/16 21:56 UTC (20 minutes ago):

KNUQ 162156Z 35010KT 10SM CLR 21/13 A2987 RMK AO2 SLP118 T02060128

TAF (pilot weather forecast)

Closest forecast is Norman Y. Mineta San Jose International Airport, 23.3 nm (43.2 km) NE. Retrieved 2019/06/16 18:27 UTC (4 hours ago):

TAF KSJC 161724Z 1618/1718 VRB04KT P6SM BKN020 FM161900 32005KT P6SM FEW020 FM162100 31011KT P6SM SKC FM170400 31006KT P6SM SKC FM170800 12004KT P6SM BKN010 FM171400 14006KT P6SM FEW012